Terminal Aerodrome Forecast
Issued by NWS Wichita, KS

Home | Current Version | Previous Version | Text Only | Print | Product List | Glossary Off
Versions: 1 2 3 4 5 6 7 8 9 10 11 12 13 14

000
FTUS43 KICT 301600 AAA
TAFICT
TAF AMD
KICT 301619Z 3016/0112 18016G23KT P6SM BKN070
     FM010000 18015KT P6SM VCTS BKN060CB
     FM010500 18014KT P6SM VCSH BKN080=

USA.gov is the U.S. government's official web portal to all federal, state and local government web resources and services.